sensor_id;sensor_type;location;lat;lon;timestamp;pressure;altitude;pressure_sealevel;temperature;humidity
11329;BME280;5719;42.714;23.732;2023-04-01T00:01:41;93597.50;;;9.50;71.24
11329;BME280;5719;42.714;23.732;2023-04-01T00:04:08;93587.66;;;9.44;71.46
11329;BME280;5719;42.714;23.732;2023-04-01T00:06:35;93583.56;;;9.42;71.33
11329;BME280;5719;42.714;23.732;2023-04-01T00:09:02;93581.88;;;9.31;71.89
11329;BME280;5719;42.714;23.732;2023-04-01T00:11:29;93576.97;;;9.28;72.50
11329;BME280;5719;42.714;23.732;2023-04-01T00:13:56;93571.09;;;9.26;72.95
11329;BME280;5719;42.714;23.732;2023-04-01T00:16:24;93576.28;;;8.40;77.10
11329;BME280;5719;42.714;23.732;2023-04-01T00:18:52;93577.47;;;8.36;79.35
11329;BME280;5719;42.714;23.732;2023-04-01T00:21:20;93576.25;;;8.62;77.40
11329;BME280;5719;42.714;23.732;2023-04-01T00:23:47;93575.84;;;8.78;77.52
11329;BME280;5719;42.714;23.732;2023-04-01T00:26:14;93572.94;;;8.71;78.13
11329;BME280;5719;42.714;23.732;2023-04-01T00:28:44;93565.75;;;8.86;77.69
11329;BME280;5719;42.714;23.732;2023-04-01T00:31:12;93565.28;;;8.92;77.55
11329;BME280;5719;42.714;23.732;2023-04-01T00:33:39;93557.16;;;8.97;77.01
11329;BME280;5719;42.714;23.732;2023-04-01T00:36:09;93553.16;;;9.04;77.46
11329;BME280;5719;42.714;23.732;2023-04-01T00:38:37;93556.50;;;9.15;77.99
11329;BME280;5719;42.714;23.732;2023-04-01T00:41:05;93551.91;;;9.19;79.19
11329;BME280;5719;42.714;23.732;2023-04-01T00:43:33;93552.00;;;9.28;78.91
11329;BME280;5719;42.714;23.732;2023-04-01T00:46:00;93555.00;;;9.33;79.22
11329;BME280;5719;42.714;23.732;2023-04-01T00:48:29;93563.44;;;9.35;79.30
11329;BME280;5719;42.714;23.732;2023-04-01T00:51:00;93558.28;;;9.35;79.35
11329;BME280;5719;42.714;23.732;2023-04-01T00:53:30;93551.13;;;9.39;78.99
11329;BME280;5719;42.714;23.732;2023-04-01T00:56:01;93549.94;;;9.43;79.33
11329;BME280;5719;42.714;23.732;2023-04-01T00:58:33;93558.34;;;9.45;80.02
11329;BME280;5719;42.714;23.732;2023-04-01T01:01:01;93543.63;;;9.36;79.78
11329;BME280;5719;42.714;23.732;2023-04-01T01:03:28;93550.53;;;9.15;79.21
11329;BME280;5719;42.714;23.732;2023-04-01T01:06:10;93534.41;;;9.02;79.34
11329;BME280;5719;42.714;23.732;2023-04-01T01:08:54;93535.31;;;9.12;79.17
11329;BME280;5719;42.714;23.732;2023-04-01T01:11:32;93527.00;;;9.08;79.05
11329;BME280;5719;42.714;23.732;2023-04-01T01:14:09;93531.63;;;8.94;80.08
11329;BME280;5719;42.714;23.732;2023-04-01T01:16:43;93538.72;;;8.80;80.99
11329;BME280;5719;42.714;23.732;2023-04-01T01:19:22;93540.31;;;8.93;80.34
11329;BME280;5719;42.714;23.732;2023-04-01T01:22:03;93525.75;;;9.03;79.51
11329;BME280;5719;42.714;23.732;2023-04-01T01:24:44;93519.16;;;9.10;79.21
11329;BME280;5719;42.714;23.732;2023-04-01T01:27:17;93506.63;;;9.05;79.31
11329;BME280;5719;42.714;23.732;2023-04-01T01:33:13;93496.94;;;9.18;80.75
11329;BME280;5719;42.714;23.732;2023-04-01T01:35:48;93506.78;;;9.24;80.57
11329;BME280;5719;42.714;23.732;2023-04-01T01:38:18;93507.56;;;9.04;81.53
11329;BME280;5719;42.714;23.732;2023-04-01T01:40:48;93513.03;;;9.11;81.12
11329;BME280;5719;42.714;23.732;2023-04-01T01:43:22;93510.47;;;9.11;79.99
11329;BME280;5719;42.714;23.732;2023-04-01T01:45:54;93498.38;;;9.11;79.44
11329;BME280;5719;42.714;23.732;2023-04-01T01:48:23;93475.03;;;9.03;78.81
11329;BME280;5719;42.714;23.732;2023-04-01T01:50:52;93492.41;;;9.11;79.32
11329;BME280;5719;42.714;23.732;2023-04-01T01:53:20;93485.38;;;9.13;79.19
11329;BME280;5719;42.714;23.732;2023-04-01T01:55:47;93478.22;;;9.16;79.13
11329;BME280;5719;42.714;23.732;2023-04-01T01:58:18;93469.66;;;9.16;78.41
11329;BME280;5719;42.714;23.732;2023-04-01T02:00:49;93462.97;;;8.93;77.79
11329;BME280;5719;42.714;23.732;2023-04-01T02:03:17;93467.34;;;8.92;79.34
11329;BME280;5719;42.714;23.732;2023-04-01T02:05:47;93470.78;;;8.81;78.79
11329;BME280;5719;42.714;23.732;2023-04-01T02:08:21;93467.88;;;8.75;80.43
11329;BME280;5719;42.714;23.732;2023-04-01T02:10:53;93464.31;;;8.66;81.05
11329;BME280;5719;42.714;23.732;2023-04-01T02:13:26;93459.50;;;8.62;81.16
11329;BME280;5719;42.714;23.732;2023-04-01T02:15:56;93458.91;;;8.38;85.78
11329;BME280;5719;42.714;23.732;2023-04-01T02:18:25;93440.13;;;7.93;89.06
11329;BME280;5719;42.714;23.732;2023-04-01T02:20:52;93461.88;;;8.11;89.68
11329;BME280;5719;42.714;23.732;2023-04-01T02:23:22;93454.47;;;8.17;86.29
11329;BME280;5719;42.714;23.732;2023-04-01T02:25:49;93460.09;;;8.33;85.36
11329;BME280;5719;42.714;23.732;2023-04-01T02:28:18;93462.13;;;8.51;83.96
11329;BME280;5719;42.714;23.732;2023-04-01T02:30:48;93448.22;;;8.42;86.67
11329;BME280;5719;42.714;23.732;2023-04-01T02:33:16;93446.97;;;8.36;88.38
11329;BME280;5719;42.714;23.732;2023-04-01T02:35:44;93446.97;;;8.36;90.26
11329;BME280;5719;42.714;23.732;2023-04-01T02:38:10;93438.75;;;8.43;90.06
11329;BME280;5719;42.714;23.732;2023-04-01T02:40:44;93412.72;;;8.46;88.34
11329;BME280;5719;42.714;23.732;2023-04-01T02:43:11;93410.94;;;8.57;84.75
11329;BME280;5719;42.714;23.732;2023-04-01T02:45:38;93419.75;;;8.75;83.13
11329;BME280;5719;42.714;23.732;2023-04-01T02:48:05;93416.78;;;8.80;82.45
11329;BME280;5719;42.714;23.732;2023-04-01T02:50:32;93420.25;;;8.90;82.23
11329;BME280;5719;42.714;23.732;2023-04-01T02:52:59;93425.47;;;9.00;81.59
11329;BME280;5719;42.714;23.732;2023-04-01T02:55:28;93427.09;;;9.01;81.89
11329;BME280;5719;42.714;23.732;2023-04-01T02:57:57;93426.53;;;8.76;84.57
11329;BME280;5719;42.714;23.732;2023-04-01T03:00:24;93408.56;;;8.65;85.00
11329;BME280;5719;42.714;23.732;2023-04-01T03:02:50;93437.47;;;8.69;87.78
11329;BME280;5719;42.714;23.732;2023-04-01T03:05:17;93438.34;;;8.58;89.09
11329;BME280;5719;42.714;23.732;2023-04-01T03:07:45;93421.38;;;8.56;89.07
11329;BME280;5719;42.714;23.732;2023-04-01T03:10:12;93423.06;;;8.66;88.01
11329;BME280;5719;42.714;23.732;2023-04-01T03:12:39;93419.75;;;8.75;87.88
11329;BME280;5719;42.714;23.732;2023-04-01T03:15:10;93433.94;;;8.91;87.47
11329;BME280;5719;42.714;23.732;2023-04-01T03:17:40;93438.25;;;9.11;87.56
11329;BME280;5719;42.714;23.732;2023-04-01T03:20:09;93438.53;;;9.08;84.39
11329;BME280;5719;42.714;23.732;2023-04-01T03:22:36;93438.78;;;9.05;83.80
11329;BME280;5719;42.714;23.732;2023-04-01T03:25:05;93438.16;;;9.12;83.13
11329;BME280;5719;42.714;23.732;2023-04-01T03:27:33;93440.28;;;9.28;83.09
11329;BME280;5719;42.714;23.732;2023-04-01T03:29:59;93436.19;;;9.25;83.67
11329;BME280;5719;42.714;23.732;2023-04-01T03:32:28;93438.94;;;9.03;85.40
11329;BME280;5719;42.714;23.732;2023-04-01T03:34:55;93442.91;;;8.55;87.83
11329;BME280;5719;42.714;23.732;2023-04-01T03:37:22;93434.06;;;8.68;87.36
11329;BME280;5719;42.714;23.732;2023-04-01T03:39:49;93438.22;;;8.80;86.27
11329;BME280;5719;42.714;23.732;2023-04-01T03:42:17;93429.56;;;8.81;85.62
11329;BME280;5719;42.714;23.732;2023-04-01T03:44:44;93431.38;;;8.91;85.96
11329;BME280;5719;42.714;23.732;2023-04-01T03:47:11;93430.63;;;9.00;85.75
11329;BME280;5719;42.714;23.732;2023-04-01T03:49:39;93438.41;;;9.09;85.27
11329;BME280;5719;42.714;23.732;2023-04-01T03:52:09;93438.84;;;9.14;84.30
11329;BME280;5719;42.714;23.732;2023-04-01T03:54:36;93436.59;;;9.21;83.54
11329;BME280;5719;42.714;23.732;2023-04-01T03:57:03;93430.91;;;9.27;82.95
11329;BME280;5719;42.714;23.732;2023-04-01T03:59:30;93433.59;;;9.25;83.32
11329;BME280;5719;42.714;23.732;2023-04-01T04:01:57;93433.94;;;9.11;84.26
11329;BME280;5719;42.714;23.732;2023-04-01T04:04:24;93434.94;;;9.20;84.27
11329;BME280;5719;42.714;23.732;2023-04-01T04:06:53;93435.50;;;9.23;84.11
11329;BME280;5719;42.714;23.732;2023-04-01T04:09:20;93430.78;;;9.28;84.38
11329;BME280;5719;42.714;23.732;2023-04-01T04:11:47;93425.38;;;9.31;85.16
11329;BME280;5719;42.714;23.732;2023-04-01T04:14:14;93430.72;;;9.40;84.88
11329;BME280;5719;42.714;23.732;2023-04-01T04:16:41;93431.00;;;9.46;85.36
11329;BME280;5719;42.714;23.732;2023-04-01T04:19:08;93424.66;;;9.50;85.91
11329;BME280;5719;42.714;23.732;2023-04-01T04:21:35;93411.47;;;9.53;85.66
11329;BME280;5719;42.714;23.732;2023-04-01T04:24:04;93414.72;;;9.55;85.53
11329;BME280;5719;42.714;23.732;2023-04-01T04:26:31;93398.44;;;9.55;85.49
11329;BME280;5719;42.714;23.732;2023-04-01T04:28:58;93393.25;;;9.45;85.71
11329;BME280;5719;42.714;23.732;2023-04-01T04:31:25;93369.00;;;9.27;87.03
11329;BME280;5719;42.714;23.732;2023-04-01T04:33:53;93376.31;;;9.22;88.75
11329;BME280;5719;42.714;23.732;2023-04-01T04:36:20;93370.81;;;9.06;87.40
11329;BME280;5719;42.714;23.732;2023-04-01T04:38:47;93376.50;;;9.00;89.27
11329;BME280;5719;42.714;23.732;2023-04-01T04:41:17;93316.09;;;8.72;91.46
11329;BME280;5719;42.714;23.732;2023-04-01T04:43:49;93344.31;;;8.94;92.18
11329;BME280;5719;42.714;23.732;2023-04-01T04:46:16;93345.13;;;8.95;93.49
11329;BME280;5719;42.714;23.732;2023-04-01T04:48:43;93338.31;;;8.94;92.04
11329;BME280;5719;42.714;23.732;2023-04-01T04:51:13;93339.97;;;8.95;93.25
11329;BME280;5719;42.714;23.732;2023-04-01T04:53:41;93328.88;;;9.04;92.61
11329;BME280;5719;42.714;23.732;2023-04-01T04:56:08;93327.56;;;9.09;92.11
11329;BME280;5719;42.714;23.732;2023-04-01T04:58:36;93326.22;;;8.84;93.92
11329;BME280;5719;42.714;23.732;2023-04-01T05:01:09;93330.50;;;8.74;95.05
11329;BME280;5719;42.714;23.732;2023-04-01T05:03:36;93326.00;;;8.97;93.77
11329;BME280;5719;42.714;23.732;2023-04-01T05:06:04;93325.25;;;9.06;93.90
11329;BME280;5719;42.714;23.732;2023-04-01T05:08:32;93319.16;;;9.17;92.60
11329;BME280;5719;42.714;23.732;2023-04-01T05:10:59;93312.94;;;9.29;92.38
11329;BME280;5719;42.714;23.732;2023-04-01T05:13:27;93306.34;;;9.36;92.21
11329;BME280;5719;42.714;23.732;2023-04-01T05:15:55;93290.19;;;9.34;92.75
11329;BME280;5719;42.714;23.732;2023-04-01T05:18:22;93280.56;;;9.36;91.29
11329;BME280;5719;42.714;23.732;2023-04-01T05:20:50;93295.22;;;9.45;90.30
11329;BME280;5719;42.714;23.732;2023-04-01T05:23:18;93285.47;;;9.49;90.40
11329;BME280;5719;42.714;23.732;2023-04-01T05:25:46;93283.84;;;9.57;87.48
11329;BME280;5719;42.714;23.732;2023-04-01T05:28:14;93272.56;;;9.49;86.01
11329;BME280;5719;42.714;23.732;2023-04-01T05:30:41;93288.03;;;9.49;86.04
11329;BME280;5719;42.714;23.732;2023-04-01T05:33:11;93274.34;;;9.58;84.88
11329;BME280;5719;42.714;23.732;2023-04-01T05:35:38;93283.19;;;9.65;84.74
11329;BME280;5719;42.714;23.732;2023-04-01T05:38:07;93278.44;;;9.79;83.12
11329;BME280;5719;42.714;23.732;2023-04-01T05:40:34;93267.31;;;9.79;83.17
11329;BME280;5719;42.714;23.732;2023-04-01T05:43:01;93263.34;;;9.84;81.74
11329;BME280;5719;42.714;23.732;2023-04-01T05:45:28;93264.31;;;9.93;81.58
11329;BME280;5719;42.714;23.732;2023-04-01T05:47:55;93267.59;;;10.05;80.79
11329;BME280;5719;42.714;23.732;2023-04-01T05:50:23;93264.06;;;10.15;79.14
11329;BME280;5719;42.714;23.732;2023-04-01T05:52:50;93267.31;;;10.27;78.86
11329;BME280;5719;42.714;23.732;2023-04-01T05:55:17;93275.72;;;10.48;77.77
11329;BME280;5719;42.714;23.732;2023-04-01T05:57:45;93274.41;;;10.81;79.68
11329;BME280;5719;42.714;23.732;2023-04-01T06:00:14;93268.25;;;11.19;78.31
11329;BME280;5719;42.714;23.732;2023-04-01T06:02:42;93239.84;;;11.37;77.06
11329;BME280;5719;42.714;23.732;2023-04-01T06:05:14;93266.47;;;11.92;73.88
11329;BME280;5719;42.714;23.732;2023-04-01T06:07:45;93267.44;;;12.26;72.37
11329;BME280;5719;42.714;23.732;2023-04-01T06:10:14;93285.13;;;12.48;69.23
11329;BME280;5719;42.714;23.732;2023-04-01T06:12:54;93283.38;;;12.74;67.00
11329;BME280;5719;42.714;23.732;2023-04-01T06:15:29;93280.53;;;12.86;64.71
11329;BME280;5719;42.714;23.732;2023-04-01T06:18:16;93282.19;;;12.95;66.63
11329;BME280;5719;42.714;23.732;2023-04-01T06:20:53;93276.59;;;13.07;66.35
11329;BME280;5719;42.714;23.732;2023-04-01T06:23:32;93271.41;;;13.41;66.20
11329;BME280;5719;42.714;23.732;2023-04-01T06:26:12;93275.25;;;13.79;65.80
11329;BME280;5719;42.714;23.732;2023-04-01T06:29:09;93265.59;;;14.30;61.15
11329;BME280;5719;42.714;23.732;2023-04-01T06:32:01;93258.91;;;14.76;56.71
11329;BME280;5719;42.714;23.732;2023-04-01T06:34:46;93259.06;;;14.98;57.51
11329;BME280;5719;42.714;23.732;2023-04-01T06:37:26;93275.00;;;15.03;55.28
11329;BME280;5719;42.714;23.732;2023-04-01T06:40:17;93269.09;;;15.09;55.86
11329;BME280;5719;42.714;23.732;2023-04-01T06:42:55;93273.34;;;15.18;56.40
11329;BME280;5719;42.714;23.732;2023-04-01T06:45:33;93263.34;;;15.30;54.74
11329;BME280;5719;42.714;23.732;2023-04-01T06:48:22;93281.22;;;15.41;54.47
11329;BME280;5719;42.714;23.732;2023-04-01T06:51:04;93263.13;;;15.56;54.63
11329;BME280;5719;42.714;23.732;2023-04-01T06:53:37;93265.88;;;15.62;54.39
11329;BME280;5719;42.714;23.732;2023-04-01T06:56:12;93254.09;;;15.66;54.30
11329;BME280;5719;42.714;23.732;2023-04-01T06:58:44;93260.44;;;15.72;54.53
11329;BME280;5719;42.714;23.732;2023-04-01T07:01:16;93247.06;;;15.75;54.70
11329;BME280;5719;42.714;23.732;2023-04-01T07:03:49;93255.78;;;15.90;53.36
11329;BME280;5719;42.714;23.732;2023-04-01T07:06:25;93253.03;;;15.92;53.20
11329;BME280;5719;42.714;23.732;2023-04-01T07:08:54;93246.22;;;15.83;52.37
11329;BME280;5719;42.714;23.732;2023-04-01T07:11:27;93264.13;;;15.86;51.95
11329;BME280;5719;42.714;23.732;2023-04-01T07:13:59;93232.84;;;15.86;52.43
11329;BME280;5719;42.714;23.732;2023-04-01T07:16:30;93227.34;;;15.81;52.90
11329;BME280;5719;42.714;23.732;2023-04-01T07:19:03;93220.03;;;15.76;53.10
11329;BME280;5719;42.714;23.732;2023-04-01T07:21:36;93219.13;;;15.61;53.20
11329;BME280;5719;42.714;23.732;2023-04-01T07:24:11;93224.50;;;15.59;52.73
11329;BME280;5719;42.714;23.732;2023-04-01T07:26:44;93224.38;;;15.45;52.36
11329;BME280;5719;42.714;23.732;2023-04-01T07:29:13;93231.81;;;15.25;52.55
11329;BME280;5719;42.714;23.732;2023-04-01T07:34:58;93209.38;;;15.16;52.72
11329;BME280;5719;42.714;23.732;2023-04-01T07:37:31;93216.34;;;15.23;52.16
11329;BME280;5719;42.714;23.732;2023-04-01T07:40:12;93200.53;;;15.33;51.44
11329;BME280;5719;42.714;23.732;2023-04-01T07:42:58;93199.66;;;15.49;51.41
11329;BME280;5719;42.714;23.732;2023-04-01T07:45:33;93193.69;;;15.71;52.23
11329;BME280;5719;42.714;23.732;2023-04-01T07:48:06;93195.69;;;15.92;50.52
11329;BME280;5719;42.714;23.732;2023-04-01T07:50:41;93180.00;;;16.14;51.85
11329;BME280;5719;42.714;23.732;2023-04-01T07:53:19;93181.06;;;16.28;50.39
11329;BME280;5719;42.714;23.732;2023-04-01T07:55:56;93189.59;;;16.37;48.74
11329;BME280;5719;42.714;23.732;2023-04-01T07:58:32;93169.09;;;16.34;49.91
11329;BME280;5719;42.714;23.732;2023-04-01T08:01:05;93183.38;;;16.23;47.08
11329;BME280;5719;42.714;23.732;2023-04-01T08:03:48;93181.47;;;16.17;47.96
11329;BME280;5719;42.714;23.732;2023-04-01T08:06:26;93172.09;;;16.08;47.84
11329;BME280;5719;42.714;23.732;2023-04-01T08:09:02;93187.09;;;16.06;49.17
11329;BME280;5719;42.714;23.732;2023-04-01T08:11:41;93179.28;;;15.83;48.26
11329;BME280;5719;42.714;23.732;2023-04-01T08:14:17;93192.53;;;15.74;47.72
11329;BME280;5719;42.714;23.732;2023-04-01T08:16:54;93193.69;;;15.32;49.45
11329;BME280;5719;42.714;23.732;2023-04-01T08:19:31;93190.50;;;15.22;51.23
11329;BME280;5719;42.714;23.732;2023-04-01T08:22:11;93177.50;;;15.14;51.31
11329;BME280;5719;42.714;23.732;2023-04-01T08:24:44;93192.63;;;15.18;51.18
11329;BME280;5719;42.714;23.732;2023-04-01T08:27:18;93183.34;;;15.16;49.77
11329;BME280;5719;42.714;23.732;2023-04-01T08:29:52;93175.38;;;15.17;50.62
11329;BME280;5719;42.714;23.732;2023-04-01T08:32:27;93172.13;;;15.15;50.34
11329;BME280;5719;42.714;23.732;2023-04-01T08:35:07;93154.31;;;15.27;50.93
11329;BME280;5719;42.714;23.732;2023-04-01T08:37:37;93147.41;;;15.42;49.93
11329;BME280;5719;42.714;23.732;2023-04-01T08:40:24;93141.16;;;15.59;51.18
11329;BME280;5719;42.714;23.732;2023-04-01T08:43:04;93130.94;;;15.81;49.75
11329;BME280;5719;42.714;23.732;2023-04-01T08:45:48;93114.34;;;15.96;51.11
11329;BME280;5719;42.714;23.732;2023-04-01T08:48:36;93108.88;;;16.06;50.25
11329;BME280;5719;42.714;23.732;2023-04-01T08:54:33;93098.28;;;16.22;49.78
11329;BME280;5719;42.714;23.732;2023-04-01T08:57:06;93102.72;;;16.36;48.98
11329;BME280;5719;42.714;23.732;2023-04-01T08:59:57;93091.13;;;16.39;48.10
11329;BME280;5719;42.714;23.732;2023-04-01T09:08:33;93068.84;;;17.16;47.40
11329;BME280;5719;42.714;23.732;2023-04-01T09:11:12;93072.06;;;17.33;46.08
11329;BME280;5719;42.714;23.732;2023-04-01T09:17:17;93069.44;;;17.69;45.11
11329;BME280;5719;42.714;23.732;2023-04-01T09:19:58;93065.78;;;17.84;44.58
11329;BME280;5719;42.714;23.732;2023-04-01T09:22:44;93073.63;;;18.12;44.38
11329;BME280;5719;42.714;23.732;2023-04-01T09:25:46;93068.50;;;18.53;42.98
11329;BME280;5719;42.714;23.732;2023-04-01T09:28:19;93072.03;;;18.73;44.63
11329;BME280;5719;42.714;23.732;2023-04-01T09:31:06;93068.00;;;18.71;42.71
11329;BME280;5719;42.714;23.732;2023-04-01T09:34:05;93060.34;;;18.69;43.38
11329;BME280;5719;42.714;23.732;2023-04-01T09:36:44;93059.75;;;18.74;42.51
11329;BME280;5719;42.714;23.732;2023-04-01T09:39:30;93053.78;;;18.80;42.78
11329;BME280;5719;42.714;23.732;2023-04-01T09:42:28;93044.72;;;18.89;40.88
11329;BME280;5719;42.714;23.732;2023-04-01T09:45:00;93038.28;;;18.91;40.53
11329;BME280;5719;42.714;23.732;2023-04-01T09:47:41;93042.38;;;19.07;40.10
11329;BME280;5719;42.714;23.732;2023-04-01T09:50:33;93032.34;;;19.17;41.12
11329;BME280;5719;42.714;23.732;2023-04-01T09:53:19;93027.50;;;19.14;39.25
11329;BME280;5719;42.714;23.732;2023-04-01T09:59:15;93027.53;;;19.27;38.64
11329;BME280;5719;42.714;23.732;2023-04-01T10:02:30;93011.78;;;19.21;39.01
11329;BME280;5719;42.714;23.732;2023-04-01T10:05:38;93019.06;;;19.19;39.62
11329;BME280;5719;42.714;23.732;2023-04-01T10:11:41;93012.63;;;18.74;39.31
11329;BME280;5719;42.714;23.732;2023-04-01T10:14:37;93002.72;;;18.63;39.60
11329;BME280;5719;42.714;23.732;2023-04-01T10:17:25;92997.59;;;18.48;40.39
11329;BME280;5719;42.714;23.732;2023-04-01T10:23:20;92993.63;;;18.24;41.45
11329;BME280;5719;42.714;23.732;2023-04-01T10:29:02;92983.38;;;18.29;40.84
11329;BME280;5719;42.714;23.732;2023-04-01T10:35:05;92989.53;;;18.15;41.96
11329;BME280;5719;42.714;23.732;2023-04-01T10:40:41;92983.63;;;18.34;42.08
11329;BME280;5719;42.714;23.732;2023-04-01T10:43:27;92971.97;;;18.37;41.94
11329;BME280;5719;42.714;23.732;2023-04-01T10:46:41;92963.16;;;18.44;42.42
11329;BME280;5719;42.714;23.732;2023-04-01T10:49:41;92963.66;;;18.61;42.13
11329;BME280;5719;42.714;23.732;2023-04-01T10:52:48;92951.94;;;19.11;41.32
11329;BME280;5719;42.714;23.732;2023-04-01T10:55:36;92941.47;;;19.31;40.84
11329;BME280;5719;42.714;23.732;2023-04-01T11:01:23;92939.69;;;19.57;40.50
11329;BME280;5719;42.714;23.732;2023-04-01T11:04:27;92920.72;;;19.82;39.60
11329;BME280;5719;42.714;23.732;2023-04-01T11:20:02;92915.41;;;20.34;38.00
11329;BME280;5719;42.714;23.732;2023-04-01T11:31:53;92889.06;;;19.64;39.69
11329;BME280;5719;42.714;23.732;2023-04-01T11:34:37;92900.78;;;19.54;40.98
11329;BME280;5719;42.714;23.732;2023-04-01T11:37:19;92890.91;;;19.43;40.49
11329;BME280;5719;42.714;23.732;2023-04-01T11:40:03;92879.00;;;19.41;40.68
11329;BME280;5719;42.714;23.732;2023-04-01T11:42:38;92859.22;;;19.25;40.91
11329;BME280;5719;42.714;23.732;2023-04-01T11:45:16;92869.50;;;19.20;40.34
11329;BME280;5719;42.714;23.732;2023-04-01T11:47:59;92883.41;;;19.14;42.08
11329;BME280;5719;42.714;23.732;2023-04-01T11:50:39;92905.00;;;19.16;41.31
11329;BME280;5719;42.714;23.732;2023-04-01T11:53:19;92897.31;;;19.15;41.52
11329;BME280;5719;42.714;23.732;2023-04-01T11:56:08;92919.44;;;18.79;41.68
11329;BME280;5719;42.714;23.732;2023-04-01T12:01:59;92953.78;;;18.22;41.80
11329;BME280;5719;42.714;23.732;2023-04-01T12:04:49;92960.06;;;18.34;41.99
11329;BME280;5719;42.714;23.732;2023-04-01T12:07:32;92978.41;;;18.41;43.47
11329;BME280;5719;42.714;23.732;2023-04-01T12:10:15;93013.13;;;17.94;54.26
11329;BME280;5719;42.714;23.732;2023-04-01T12:12:49;93035.84;;;17.08;57.78
11329;BME280;5719;42.714;23.732;2023-04-01T12:15:23;93065.59;;;15.59;69.42
11329;BME280;5719;42.714;23.732;2023-04-01T12:17:56;93114.66;;;14.07;74.91
11329;BME280;5719;42.714;23.732;2023-04-01T12:20:39;93147.50;;;12.67;94.79
11329;BME280;5719;42.714;23.732;2023-04-01T12:23:33;93171.56;;;11.83;100.00
11329;BME280;5719;42.714;23.732;2023-04-01T12:26:22;93132.88;;;11.63;100.00
11329;BME280;5719;42.714;23.732;2023-04-01T12:29:07;93164.88;;;11.62;100.00
11329;BME280;5719;42.714;23.732;2023-04-01T12:31:45;93157.94;;;11.63;100.00
11329;BME280;5719;42.714;23.732;2023-04-01T12:34:44;93155.28;;;11.37;100.00
11329;BME280;5719;42.714;23.732;2023-04-01T12:37:20;93144.78;;;11.56;100.00
11329;BME280;5719;42.714;23.732;2023-04-01T12:40:06;93139.81;;;11.45;100.00
11329;BME280;5719;42.714;23.732;2023-04-01T12:43:02;93132.66;;;11.74;100.00
11329;BME280;5719;42.714;23.732;2023-04-01T12:45:33;93110.25;;;11.83;100.00
11329;BME280;5719;42.714;23.732;2023-04-01T12:48:37;93151.94;;;11.98;100.00
11329;BME280;5719;42.714;23.732;2023-04-01T12:51:48;93135.16;;;12.27;100.00
11329;BME280;5719;42.714;23.732;2023-04-01T13:01:00;93148.34;;;12.76;100.00
11329;BME280;5719;42.714;23.732;2023-04-01T13:03:56;93145.69;;;13.02;100.00
11329;BME280;5719;42.714;23.732;2023-04-01T13:06:52;93140.97;;;12.89;100.00
11329;BME280;5719;42.714;23.732;2023-04-01T13:09:34;93150.66;;;13.37;100.00
11329;BME280;5719;42.714;23.732;2023-04-01T13:12:21;93146.34;;;13.78;97.51
11329;BME280;5719;42.714;23.732;2023-04-01T13:15:09;93133.84;;;13.65;98.00
11329;BME280;5719;42.714;23.732;2023-04-01T13:17:44;93148.94;;;13.70;100.00
11329;BME280;5719;42.714;23.732;2023-04-01T13:20:21;93145.69;;;13.60;100.00
11329;BME280;5719;42.714;23.732;2023-04-01T13:22:59;93140.00;;;13.56;97.97
11329;BME280;5719;42.714;23.732;2023-04-01T13:25:34;93139.19;;;13.56;100.00
11329;BME280;5719;42.714;23.732;2023-04-01T13:28:10;93140.34;;;13.86;99.83
11329;BME280;5719;42.714;23.732;2023-04-01T13:30:47;93109.03;;;13.79;98.23
11329;BME280;5719;42.714;23.732;2023-04-01T13:33:24;93143.59;;;14.12;96.41
11329;BME280;5719;42.714;23.732;2023-04-01T13:36:06;93141.00;;;14.12;97.97
11329;BME280;5719;42.714;23.732;2023-04-01T13:38:49;93101.47;;;14.24;96.11
11329;BME280;5719;42.714;23.732;2023-04-01T13:41:30;93110.91;;;14.17;98.60
11329;BME280;5719;42.714;23.732;2023-04-01T13:44:06;93100.22;;;13.96;98.55
11329;BME280;5719;42.714;23.732;2023-04-01T13:46:52;93087.88;;;14.14;99.74
11329;BME280;5719;42.714;23.732;2023-04-01T13:49:34;93081.19;;;14.36;98.80
11329;BME280;5719;42.714;23.732;2023-04-01T13:52:23;93067.19;;;14.53;97.67
11329;BME280;5719;42.714;23.732;2023-04-01T13:55:14;93056.06;;;14.67;97.24
11329;BME280;5719;42.714;23.732;2023-04-01T13:58:10;93052.06;;;14.80;98.45
11329;BME280;5719;42.714;23.732;2023-04-01T14:00:48;93052.00;;;14.96;96.34
11329;BME280;5719;42.714;23.732;2023-04-01T14:03:30;93037.16;;;15.27;97.06
11329;BME280;5719;42.714;23.732;2023-04-01T14:06:09;93025.16;;;15.86;92.69
11329;BME280;5719;42.714;23.732;2023-04-01T14:08:52;93023.78;;;16.42;82.33
11329;BME280;5719;42.714;23.732;2023-04-01T14:11:29;93030.66;;;16.94;79.23
11329;BME280;5719;42.714;23.732;2023-04-01T14:14:05;93032.78;;;17.62;71.53
11329;BME280;5719;42.714;23.732;2023-04-01T14:16:55;93016.28;;;18.10;75.55
11329;BME280;5719;42.714;23.732;2023-04-01T14:19:44;93009.56;;;18.64;69.33
11329;BME280;5719;42.714;23.732;2023-04-01T14:22:23;93018.69;;;19.35;63.12
11329;BME280;5719;42.714;23.732;2023-04-01T14:25:12;93007.28;;;19.49;63.18
11329;BME280;5719;42.714;23.732;2023-04-01T14:27:51;93002.22;;;20.20;57.89
11329;BME280;5719;42.714;23.732;2023-04-01T14:30:35;93000.91;;;20.75;57.83
11329;BME280;5719;42.714;23.732;2023-04-01T14:33:20;93002.81;;;21.12;53.66
11329;BME280;5719;42.714;23.732;2023-04-01T14:36:00;92991.22;;;21.26;54.21
11329;BME280;5719;42.714;23.732;2023-04-01T14:38:53;92988.63;;;21.13;54.85
11329;BME280;5719;42.714;23.732;2023-04-01T14:41:35;92983.66;;;20.21;58.61
11329;BME280;5719;42.714;23.732;2023-04-01T14:44:33;92973.91;;;20.54;55.89
11329;BME280;5719;42.714;23.732;2023-04-01T14:50:05;92976.72;;;21.11;52.82
11329;BME280;5719;42.714;23.732;2023-04-01T14:52:36;92983.38;;;21.13;51.66
11329;BME280;5719;42.714;23.732;2023-04-01T14:55:19;92991.53;;;20.92;51.61
11329;BME280;5719;42.714;23.732;2023-04-01T14:57:58;92972.75;;;20.88;53.52
11329;BME280;5719;42.714;23.732;2023-04-01T15:00:26;92996.28;;;21.21;52.46
11329;BME280;5719;42.714;23.732;2023-04-01T15:02:57;92996.75;;;20.54;52.49
11329;BME280;5719;42.714;23.732;2023-04-01T15:05:35;92982.03;;;20.20;54.52
11329;BME280;5719;42.714;23.732;2023-04-01T15:08:11;92988.06;;;20.40;54.27